Time;durP1;ratioP1;P1;durP2;ratioP2;P2;SDS_P1;SDS_P2;PMS_P1;PMS_P2;Temp;Humidity;BMP_temperature;BMP_pressure;BME280_temperature;BME280_humidity;BME280_pressure;Samples;Min_cycle;Max_cycle;Signal;HPM_P1;HPM_P2
2022/10/13 00:00:25;;;;;;;3.90;3.28;;;;;;;12.34;75.49;99049.97;5035038;28;20265;-57
2022/10/13 00:02:51;;;;;;;3.38;3.08;;;;;;;12.34;75.33;99043.94;5034985;28;20261;-57
2022/10/13 00:05:17;;;;;;;3.47;2.80;;;;;;;12.30;75.45;99042.47;5035233;28;20162;-57
2022/10/13 00:07:42;;;;;;;2.80;2.60;;;;;;;12.26;76.29;99048.81;5034879;28;20181;-57
2022/10/13 00:10:08;;;;;;;4.43;3.17;;;;;;;12.28;76.06;99033.97;5035081;28;20221;-57
2022/10/13 00:12:35;;;;;;;3.90;2.97;;;;;;;12.45;75.13;99049.28;5034800;28;20690;-57
2022/10/13 00:15:03;;;;;;;3.20;2.90;;;;;;;12.39;75.05;99047.06;5016915;28;20213;-57
2022/10/13 00:17:28;;;;;;;2.85;2.65;;;;;;;12.35;75.47;99040.41;5034886;28;20182;-57
2022/10/13 00:19:53;;;;;;;3.10;2.83;;;;;;;12.36;75.03;99048.09;5034655;28;20559;-57
2022/10/13 00:22:19;;;;;;;2.95;2.72;;;;;;;12.18;75.65;99038.09;5034623;28;20174;-57
2022/10/13 00:24:50;;;;;;;4.60;2.67;;;;;;;12.23;75.92;99043.81;5034574;28;20163;-57
2022/10/13 00:27:15;;;;;;;3.45;3.15;;;;;;;12.22;76.25;99039.56;5034275;28;20177;-57
2022/10/13 00:29:41;;;;;;;2.72;2.53;;;;;;;12.16;75.72;99043.41;5034751;28;20269;-57
2022/10/13 00:32:06;;;;;;;3.17;2.58;;;;;;;12.13;76.02;99045.38;5034712;28;20173;-57
2022/10/13 00:34:32;;;;;;;3.08;2.75;;;;;;;12.14;76.60;99036.66;5034325;28;20305;-57
2022/10/13 00:36:57;;;;;;;3.97;2.88;;;;;;;12.11;76.05;99037.66;5034641;28;20662;-57
2022/10/13 00:39:22;;;;;;;4.60;2.75;;;;;;;11.99;77.11;99035.03;5034535;28;20170;-57
2022/10/13 00:41:48;;;;;;;5.63;2.83;;;;;;;11.99;77.17;99037.63;5034533;28;20636;-58
2022/10/13 00:44:50;;;;;;;3.10;2.90;;;;;;;12.05;77.77;99037.22;5034193;28;20656;-57
2022/10/13 00:47:16;;;;;;;3.38;3.08;;;;;;;12.13;77.34;99051.38;5034144;28;20236;-57
2022/10/13 00:49:42;;;;;;;4.40;2.83;;;;;;;12.07;77.94;99045.75;5034105;28;20186;-57
2022/10/13 00:52:07;;;;;;;3.20;2.95;;;;;;;12.07;77.65;99053.53;5034585;28;20178;-57
2022/10/13 00:54:33;;;;;;;2.88;2.65;;;;;;;12.13;76.93;99055.75;5034230;28;20198;-57
2022/10/13 00:56:58;;;;;;;3.42;2.75;;;;;;;12.08;77.28;99058.59;5034503;28;20210;-57
2022/10/13 00:59:27;;;;;;;2.95;2.65;;;;;;;12.03;78.12;99068.44;5033902;28;20232;-57
2022/10/13 01:01:54;;;;;;;3.53;2.70;;;;;;;12.01;78.00;99062.53;5034059;28;20200;-57
2022/10/13 01:04:24;;;;;;;4.05;3.10;;;;;;;12.00;77.55;99057.44;5034086;28;20178;-57
2022/10/13 01:06:51;;;;;;;3.85;2.88;;;;;;;11.94;77.95;99052.63;5033741;28;20178;-57
2022/10/13 01:09:16;;;;;;;3.97;3.00;;;;;;;11.90;78.14;99053.78;5033724;28;20213;-57
2022/10/13 01:11:53;;;;;;;2.92;2.72;;;;;;;11.88;78.20;99050.44;5033951;28;20652;-57
2022/10/13 01:14:43;;;;;;;4.60;2.78;;;;;;;11.75;79.54;99057.34;5033787;28;20226;-57
2022/10/13 01:17:22;;;;;;;4.28;3.22;;;;;;;11.66;80.94;99050.13;5015883;28;20261;-57
2022/10/13 01:20:06;;;;;;;2.72;2.53;;;;;;;11.73;79.56;99047.06;5033575;28;20623;-57
2022/10/13 01:22:37;;;;;;;2.95;2.75;;;;;;;11.77;79.23;99052.88;5033720;28;20262;-57
2022/10/13 01:25:30;;;;;;;4.95;2.88;;;;;;;11.76;79.10;99044.28;5015691;28;20711;-57
2022/10/13 01:28:19;;;;;;;4.82;2.90;;;;;;;11.70;79.03;99046.41;5033389;28;20671;-57
2022/10/13 01:30:50;;;;;;;3.80;2.83;;;;;;;11.70;79.17;99041.22;5033862;28;20616;-57
2022/10/13 01:33:39;;;;;;;2.90;2.65;;;;;;;11.60;78.92;99040.13;5033280;28;20189;-57
2022/10/13 01:36:20;;;;;;;4.20;2.53;;;;;;;11.58;79.54;99034.19;5032974;28;20597;-57
2022/10/13 01:38:54;;;;;;;4.72;2.90;;;;;;;11.52;81.04;99043.19;5032445;28;20150;-57
2022/10/13 01:41:37;;;;;;;5.78;2.90;;;;;;;11.52;81.02;99034.56;5033342;28;20178;-57
2022/10/13 01:44:24;;;;;;;3.28;2.97;;;;;;;11.57;80.62;99035.13;5033346;28;20241;-57
2022/10/13 01:46:51;;;;;;;4.05;2.50;;;;;;;11.55;80.68;99030.03;5015329;28;20173;-57
2022/10/13 01:49:20;;;;;;;6.90;3.03;;;;;;;11.55;79.22;99024.84;5032955;28;20254;-57
2022/10/13 01:51:47;;;;;;;2.80;2.60;;;;;;;11.49;79.21;99027.00;5015162;28;20175;-57
2022/10/13 01:54:13;;;;;;;2.83;2.63;;;;;;;11.54;78.77;99030.13;5032770;28;20200;-57
2022/10/13 01:56:38;;;;;;;3.10;2.80;;;;;;;11.55;79.16;99018.84;5032854;28;20167;-57
2022/10/13 01:59:09;;;;;;;5.60;2.67;;;;;;;11.50;79.66;99018.31;5032820;28;20181;-57
2022/10/13 02:01:44;;;;;;;3.10;2.90;;;;;;;11.49;79.25;99016.66;5033046;28;20251;-57
2022/10/13 02:04:22;;;;;;;2.85;2.65;;;;;;;11.53;79.68;99016.34;5032930;28;20155;-57
2022/10/13 02:06:56;;;;;;;5.35;2.63;;;;;;;11.51;79.62;99015.63;5032987;28;20249;-57
2022/10/13 02:09:26;;;;;;;5.47;2.45;;;;;;;11.57;79.84;99020.41;5033410;28;20678;-57
2022/10/13 02:12:11;;;;;;;3.35;2.80;;;;;;;11.53;79.85;99023.28;5032536;28;20178;-57
2022/10/13 02:14:41;;;;;;;3.90;2.70;;;;;;;11.50;80.08;99021.72;5032634;28;20575;-57
2022/10/13 02:17:07;;;;;;;3.80;2.55;;;;;;;11.42;80.61;99020.53;5032478;28;20158;-57
2022/10/13 02:19:34;;;;;;;5.20;2.85;;;;;;;11.48;80.41;99030.50;5032388;28;20656;-57
2022/10/13 02:22:01;;;;;;;2.58;2.38;;;;;;;11.49;80.25;99024.41;5032396;28;20177;-57
2022/10/13 02:24:27;;;;;;;2.90;2.70;;;;;;;11.46;80.25;99019.41;5032561;28;20166;-57
2022/10/13 02:26:52;;;;;;;4.00;2.30;;;;;;;11.55;80.04;99026.63;5032628;28;20166;-56
2022/10/13 02:29:18;;;;;;;3.35;2.40;;;;;;;11.53;80.27;99031.06;5032751;28;20170;-57
2022/10/13 02:31:45;;;;;;;2.78;2.58;;;;;;;11.48;79.62;99022.72;5032798;28;20197;-57
2022/10/13 02:34:11;;;;;;;2.95;2.75;;;;;;;11.54;79.79;99027.53;5031865;28;20244;-57
2022/10/13 02:36:37;;;;;;;2.70;2.50;;;;;;;11.56;79.23;99018.72;5032785;28;20197;-57
2022/10/13 02:39:07;;;;;;;3.15;2.88;;;;;;;11.57;79.25;99019.56;5032261;28;20174;-57
2022/10/13 02:41:33;;;;;;;2.45;2.25;;;;;;;11.61;79.15;99015.91;5032634;28;20272;-57
2022/10/13 02:43:58;;;;;;;3.08;2.78;;;;;;;11.66;78.75;99008.66;5032124;28;20314;-57
2022/10/13 02:46:24;;;;;;;2.50;2.40;;;;;;;11.63;78.62;98999.34;5032056;28;20178;-57
2022/10/13 02:48:50;;;;;;;2.58;2.38;;;;;;;11.65;78.84;98999.22;5032006;28;20300;-57
2022/10/13 02:51:16;;;;;;;5.10;2.65;;;;;;;11.56;79.50;99003.19;5032083;28;20177;-57
2022/10/13 02:53:41;;;;;;;4.93;2.60;;;;;;;11.49;80.43;99011.47;5031920;28;20178;-58
2022/10/13 02:56:07;;;;;;;2.80;2.60;;;;;;;11.46;80.67;99006.47;5031930;28;20247;-58
2022/10/13 02:58:33;;;;;;;2.55;2.42;;;;;;;11.51;80.20;99012.19;5031893;28;20178;-58
2022/10/13 03:01:10;;;;;;;3.50;3.05;;;;;;;11.52;80.56;99003.47;5014707;28;20193;-55
2022/10/13 03:03:36;;;;;;;3.72;2.70;;;;;;;11.44;80.63;99010.91;5032094;28;20158;-55
2022/10/13 03:06:02;;;;;;;3.00;2.80;;;;;;;11.35;81.37;99003.69;5031859;28;20559;-55
2022/10/13 03:08:27;;;;;;;3.97;2.72;;;;;;;11.37;81.55;99007.03;5032103;28;20174;-55
2022/10/13 03:10:53;;;;;;;3.10;2.83;;;;;;;11.39;81.51;99003.41;5032084;28;20179;-55
2022/10/13 03:13:18;;;;;;;3.67;3.03;;;;;;;11.46;80.82;99006.47;5032332;28;20248;-54
2022/10/13 03:15:45;;;;;;;3.28;2.67;;;;;;;11.45;81.29;99013.38;5013991;28;20222;-54
2022/10/13 03:18:10;;;;;;;3.17;2.60;;;;;;;11.41;81.15;99013.69;5031974;28;20538;-56
2022/10/13 03:20:35;;;;;;;2.72;2.50;;;;;;;11.32;80.60;99009.09;5031733;28;20178;-56
2022/10/13 03:23:01;;;;;;;3.90;3.08;;;;;;;11.40;80.21;99012.03;5032245;28;20170;-56
2022/10/13 03:25:27;;;;;;;3.28;2.40;;;;;;;11.34;80.91;99004.63;5031671;28;20705;-56
2022/10/13 03:27:54;;;;;;;3.55;2.75;;;;;;;11.34;81.13;99012.41;5031616;28;20173;-56
2022/10/13 03:30:20;;;;;;;3.08;2.10;;;;;;;11.33;81.01;99005.56;5031614;28;20182;-56
2022/10/13 03:32:46;;;;;;;3.33;3.00;;;;;;;11.27;81.10;99000.75;5031531;28;20183;-56
2022/10/13 03:35:11;;;;;;;5.93;3.10;;;;;;;11.24;81.90;99000.94;5031291;28;20249;-56
2022/10/13 03:37:37;;;;;;;2.83;2.63;;;;;;;11.35;81.80;98998.50;5031848;28;20170;-56
2022/10/13 03:40:02;;;;;;;3.95;2.58;;;;;;;11.31;81.34;98994.44;5031505;28;20167;-56
2022/10/13 03:42:28;;;;;;;2.95;2.63;;;;;;;11.34;81.24;98992.53;5031556;28;20175;-56
2022/10/13 03:44:53;;;;;;;2.67;2.38;;;;;;;11.33;81.08;98992.59;5031477;28;20171;-56
2022/10/13 03:47:18;;;;;;;4.38;2.83;;;;;;;11.29;81.36;98991.97;5031770;28;20166;-56
2022/10/13 03:49:44;;;;;;;2.63;2.42;;;;;;;11.32;81.44;98989.19;5031709;28;20177;-56
2022/10/13 03:52:09;;;;;;;3.22;2.40;;;;;;;11.35;80.71;98988.16;5031419;28;20171;-56
2022/10/13 03:54:35;;;;;;;3.03;2.72;;;;;;;11.35;81.08;98985.56;5031613;28;20207;-56
2022/10/13 03:57:00;;;;;;;6.25;2.80;;;;;;;11.36;81.38;98984.63;5031419;28;20567;-56
2022/10/13 03:59:28;;;;;;;2.83;2.63;;;;;;;11.35;81.06;98988.16;5031681;28;20210;-56
2022/10/13 04:01:53;;;;;;;3.22;2.60;;;;;;;11.32;81.58;98983.19;5034021;28;20175;-56
2022/10/13 04:04:18;;;;;;;3.40;3.05;;;;;;;11.33;81.83;98984.84;5017209;28;20166;-55
2022/10/13 04:06:44;;;;;;;4.65;3.20;;;;;;;11.22;82.83;98982.06;5034913;28;20166;-56
2022/10/13 04:09:09;;;;;;;2.92;2.40;;;;;;;11.28;81.95;98992.06;5035143;28;20189;-56
2022/10/13 04:11:35;;;;;;;3.13;2.70;;;;;;;11.31;82.19;98976.31;5034804;28;20175;-56
2022/10/13 04:14:00;;;;;;;2.80;2.67;;;;;;;11.24;83.26;98985.41;5035265;28;20198;-56
2022/10/13 04:16:29;;;;;;;4.15;2.90;;;;;;;11.23;82.74;98981.16;5034557;28;20181;-56
2022/10/13 04:19:02;;;;;;;4.43;3.08;;;;;;;11.15;83.74;98991.16;5034637;28;20710;-56
2022/10/13 04:21:29;;;;;;;3.72;2.70;;;;;;;11.19;83.17;98988.28;5034927;28;20201;-56
2022/10/13 04:23:57;;;;;;;2.70;2.40;;;;;;;11.16;82.87;98987.63;5034575;28;20656;-56
2022/10/13 04:26:24;;;;;;;2.70;2.50;;;;;;;11.20;82.83;98989.94;5034397;28;20236;-56
2022/10/13 04:28:52;;;;;;;2.97;2.75;;;;;;;11.20;82.63;98989.13;5034369;28;20178;-56
2022/10/13 04:31:20;;;;;;;2.85;2.65;;;;;;;11.16;83.39;98995.41;5034462;28;20180;-56
2022/10/13 04:33:46;;;;;;;5.60;2.55;;;;;;;11.15;83.59;98994.56;5034587;28;20175;-56
2022/10/13 04:36:13;;;;;;;2.78;2.58;;;;;;;11.23;82.98;98991.50;5034160;28;20233;-56
2022/10/13 04:38:40;;;;;;;3.65;2.90;;;;;;;11.20;82.18;98994.31;5034534;28;20304;-55
2022/10/13 04:41:06;;;;;;;2.95;2.60;;;;;;;11.22;82.58;98998.47;5034232;28;20656;-56
2022/10/13 04:43:32;;;;;;;2.88;2.65;;;;;;;11.15;83.16;98996.34;5016456;28;20221;-57
2022/10/13 04:46:03;;;;;;;5.63;2.63;;;;;;;11.13;84.03;99000.75;5034154;28;20647;-56
2022/10/13 04:48:28;;;;;;;5.18;2.75;;;;;;;11.12;84.47;99006.88;5034390;28;20170;-57
2022/10/13 04:51:14;;;;;;;4.80;2.95;;;;;;;11.08;84.51;99006.22;5034604;28;20178;-57
2022/10/13 04:53:41;;;;;;;4.28;2.47;;;;;;;11.11;84.11;98995.69;5034287;28;20159;-57
2022/10/13 04:56:08;;;;;;;4.10;2.45;;;;;;;11.19;83.84;99002.97;5033958;28;20175;-57
2022/10/13 04:58:35;;;;;;;5.75;2.22;;;;;;;11.17;83.50;99004.84;5034219;28;20174;-57
2022/10/13 05:01:01;;;;;;;2.85;2.63;;;;;;;11.19;83.66;99003.81;5034153;28;20170;-57
2022/10/13 05:03:27;;;;;;;3.30;2.80;;;;;;;11.12;84.27;99012.06;5034083;28;20178;-57
2022/10/13 05:05:52;;;;;;;4.32;2.80;;;;;;;11.12;84.47;99006.88;5016099;28;20181;-57
2022/10/13 05:08:18;;;;;;;5.20;3.03;;;;;;;11.14;85.26;99002.44;5033785;28;20572;-57
2022/10/13 05:10:53;;;;;;;3.72;2.80;;;;;;;11.24;84.92;99006.97;5033701;28;20173;-57
2022/10/13 05:13:19;;;;;;;3.58;2.88;;;;;;;11.31;84.47;99012.56;5032654;28;20632;-56
2022/10/13 05:15:44;;;;;;;3.45;3.15;;;;;;;11.33;84.11;99006.38;5033503;28;20198;-57
2022/10/13 05:18:09;;;;;;;5.85;3.50;;;;;;;11.35;84.12;99008.88;5015777;28;20265;-56
2022/10/13 05:20:35;;;;;;;3.25;3.05;;;;;;;11.41;83.44;99009.34;5033516;28;20177;-57
2022/10/13 05:23:00;;;;;;;3.60;3.08;;;;;;;11.50;82.99;99007.94;5033479;28;20206;-57
2022/10/13 05:25:26;;;;;;;4.93;2.83;;;;;;;11.56;82.18;99004.97;5033675;28;20170;-57
2022/10/13 05:27:51;;;;;;;3.00;2.70;;;;;;;11.67;82.03;99012.94;5033323;28;20613;-57
2022/10/13 05:30:16;;;;;;;3.22;2.90;;;;;;;11.68;81.48;99012.81;5033344;28;20174;-57
2022/10/13 05:32:42;;;;;;;4.05;2.95;;;;;;;11.75;81.64;99014.09;5033261;28;20564;-57
2022/10/13 05:35:08;;;;;;;3.15;2.83;;;;;;;11.79;81.74;99012.16;5032899;28;20229;-57
2022/10/13 05:37:33;;;;;;;6.25;2.83;;;;;;;11.83;81.25;99011.00;5033710;28;20194;-57
2022/10/13 05:39:58;;;;;;;2.80;2.60;;;;;;;11.96;80.84;99006.72;5033123;28;20171;-57
2022/10/13 05:42:24;;;;;;;3.17;2.88;;;;;;;11.99;80.59;99007.34;5033414;28;20170;-57
2022/10/13 05:44:50;;;;;;;6.57;2.72;;;;;;;12.03;80.64;99005.38;5033076;28;20607;-57
2022/10/13 05:47:15;;;;;;;3.00;2.70;;;;;;;12.21;79.69;99019.75;5033020;28;20177;-57
2022/10/13 05:49:41;;;;;;;3.95;2.83;;;;;;;12.27;79.36;99032.31;5032978;28;20585;-57
2022/10/13 05:52:11;;;;;;;4.25;2.70;;;;;;;12.22;80.79;99030.03;5015161;28;20174;-57
2022/10/13 05:54:46;;;;;;;4.85;2.78;;;;;;;12.35;79.31;99041.25;5033675;28;20255;-57
2022/10/13 05:57:17;;;;;;;4.18;3.00;;;;;;;12.34;78.11;99033.56;5033172;28;20172;-57
2022/10/13 05:59:50;;;;;;;3.53;2.80;;;;;;;12.44;77.91;99034.63;5032962;28;20162;-57
2022/10/13 06:02:16;;;;;;;3.53;3.17;;;;;;;12.51;77.31;99036.72;5033032;28;20155;-57
2022/10/13 06:04:49;;;;;;;3.22;2.70;;;;;;;12.58;77.31;99037.97;5032686;28;20177;-57
2022/10/13 06:07:15;;;;;;;6.68;2.50;;;;;;;12.53;77.49;99036.59;5032604;28;20552;-57
2022/10/13 06:09:41;;;;;;;4.03;2.60;;;;;;;12.51;78.05;99035.88;5032630;28;20667;-57
2022/10/13 06:12:08;;;;;;;3.15;2.90;;;;;;;12.69;76.86;99042.44;5032580;28;20675;-57
2022/10/13 06:14:34;;;;;;;3.33;2.90;;;;;;;12.72;75.91;99035.28;5032659;28;20198;-57
2022/10/13 06:16:59;;;;;;;3.03;2.55;;;;;;;12.83;76.26;99031.97;5032499;28;20181;-57
2022/10/13 06:19:25;;;;;;;3.13;2.90;;;;;;;12.91;75.84;99035.72;5032667;28;20171;-57
2022/10/13 06:21:51;;;;;;;4.18;2.85;;;;;;;12.92;76.52;99039.13;5032623;28;20665;-57
2022/10/13 06:24:16;;;;;;;3.58;3.13;;;;;;;12.89;76.71;99027.19;5032249;28;20635;-57
2022/10/13 06:26:42;;;;;;;3.58;3.28;;;;;;;13.06;76.47;99029.50;5032586;28;20706;-57
2022/10/13 06:29:07;;;;;;;3.50;3.20;;;;;;;13.13;76.15;99037.72;5032538;28;20643;-57
2022/10/13 06:31:32;;;;;;;4.55;3.30;;;;;;;13.21;75.68;99032.81;5032848;28;20174;-58
2022/10/13 06:33:58;;;;;;;3.70;3.13;;;;;;;13.34;75.16;99028.41;5032235;28;20177;-57
2022/10/13 06:36:24;;;;;;;3.05;2.47;;;;;;;13.37;74.69;99023.00;5032184;28;20563;-58
2022/10/13 06:38:50;;;;;;;3.55;3.03;;;;;;;13.51;73.70;99023.69;5032112;28;20223;-57
2022/10/13 06:41:15;;;;;;;4.32;2.97;;;;;;;13.55;73.86;99026.91;5032155;28;20183;-58
2022/10/13 06:43:41;;;;;;;3.25;2.58;;;;;;;13.67;73.10;99020.84;5032148;28;20174;-58
2022/10/13 06:46:07;;;;;;;7.28;3.25;;;;;;;13.76;71.95;99026.22;5032321;28;20177;-57
2022/10/13 06:48:32;;;;;;;8.02;3.65;;;;;;;13.86;71.39;99022.03;5032010;28;20178;-58
2022/10/13 06:51:03;;;;;;;4.97;3.00;;;;;;;13.95;71.05;99030.94;5032126;28;20167;-58
2022/10/13 06:53:28;;;;;;;4.82;2.90;;;;;;;13.94;71.06;99021.47;5032225;28;20179;-58
2022/10/13 06:55:57;;;;;;;4.38;2.90;;;;;;;13.95;70.65;99026.53;5031877;28;20313;-57
2022/10/13 06:58:23;;;;;;;2.55;2.35;;;;;;;14.15;70.76;99025.94;5032079;28;20296;-57
2022/10/13 07:00:48;;;;;;;2.33;2.13;;;;;;;14.37;69.42;99017.41;5032143;28;20647;-57
2022/10/13 07:03:14;;;;;;;6.97;5.63;;;;;;;14.44;69.25;99026.41;5032134;28;20178;-57
2022/10/13 07:05:39;;;;;;;3.45;3.15;;;;;;;14.54;68.65;99035.22;5032166;28;20171;-57
2022/10/13 07:08:05;;;;;;;3.03;2.83;;;;;;;14.58;68.32;99032.25;5031867;28;20733;-57
2022/10/13 07:10:30;;;;;;;4.75;3.15;;;;;;;14.61;68.61;99033.81;5032089;28;20273;-57
2022/10/13 07:12:56;;;;;;;4.57;3.15;;;;;;;14.73;68.59;99032.88;5031844;28;20177;-57
2022/10/13 07:15:23;;;;;;;3.22;3.00;;;;;;;14.85;69.14;99032.78;5031701;28;20726;-56
2022/10/13 07:17:51;;;;;;;24.90;6.57;;;;;;;14.87;72.07;99033.50;5031763;28;20175;-57
2022/10/13 07:20:16;;;;;;;17.67;6.57;;;;;;;14.91;71.31;99029.72;5031788;28;20163;-57
2022/10/13 07:22:43;;;;;;;19.83;7.05;;;;;;;14.99;71.19;99031.75;5031754;28;20174;-57
2022/10/13 07:25:08;;;;;;;25.77;8.35;;;;;;;15.12;72.61;99027.25;5031694;28;20174;-56
2022/10/13 07:27:34;;;;;;;19.42;7.72;;;;;;;15.24;72.81;99026.31;5032178;28;20174;-57
2022/10/13 07:29:59;;;;;;;18.10;7.90;;;;;;;15.34;72.01;99020.28;5031691;28;20166;-57
2022/10/13 07:32:25;;;;;;;18.85;8.20;;;;;;;15.48;72.07;99024.41;5031690;28;20258;-56
2022/10/13 07:34:54;;;;;;;15.77;7.75;;;;;;;15.68;70.70;99021.06;5031386;28;20248;-58
2022/10/13 07:37:19;;;;;;;23.38;8.38;;;;;;;15.81;70.33;99027.78;5035530;28;20253;-58
2022/10/13 07:39:44;;;;;;;23.10;6.63;;;;;;;15.94;69.75;99011.97;5017684;28;20665;-58
2022/10/13 07:42:10;;;;;;;16.45;6.88;;;;;;;16.09;68.86;99010.75;5035362;28;20703;-57
2022/10/13 07:44:35;;;;;;;12.55;6.93;;;;;;;16.20;67.73;99002.88;5035315;28;20170;-57
2022/10/13 07:47:01;;;;;;;13.82;5.63;;;;;;;16.33;67.13;99004.34;5035374;28;20170;-57
2022/10/13 07:49:26;;;;;;;10.90;5.97;;;;;;;16.48;64.85;98991.81;5035593;28;20166;-57
2022/10/13 07:51:51;;;;;;;10.10;5.65;;;;;;;16.58;64.03;98998.78;5017507;28;20197;-56
2022/10/13 07:54:17;;;;;;;9.02;5.13;;;;;;;16.58;64.77;98993.56;5035138;28;20194;-56
2022/10/13 07:56:43;;;;;;;6.32;4.50;;;;;;;16.66;64.22;98998.13;5035696;28;20174;-55
2022/10/13 07:59:09;;;;;;;7.88;4.80;;;;;;;16.78;64.26;98994.47;5035110;28;20170;-56
2022/10/13 08:01:35;;;;;;;11.70;5.38;;;;;;;16.80;62.59;98995.19;5035053;28;20175;-55
2022/10/13 08:04:00;;;;;;;9.35;4.70;;;;;;;16.83;63.27;98989.69;5035517;28;20186;-55
2022/10/13 08:06:26;;;;;;;10.85;5.00;;;;;;;16.89;63.04;98986.56;5034985;28;20174;-55
2022/10/13 08:08:51;;;;;;;12.27;5.45;;;;;;;16.96;63.66;98998.97;5034903;28;20189;-55
2022/10/13 08:11:17;;;;;;;11.05;5.75;;;;;;;17.01;63.75;98993.34;5034902;28;20173;-56
2022/10/13 08:13:52;;;;;;;12.38;6.00;;;;;;;17.09;63.84;98996.16;5034854;28;20170;-56
2022/10/13 08:16:18;;;;;;;15.30;5.95;;;;;;;17.11;62.87;98989.84;5035042;28;20170;-56
2022/10/13 08:18:44;;;;;;;12.13;6.47;;;;;;;17.15;62.74;98993.03;5034967;28;20299;-56
2022/10/13 08:21:13;;;;;;;18.48;6.18;;;;;;;17.17;63.01;98985.84;5034669;28;20228;-57
2022/10/13 08:23:38;;;;;;;15.82;6.85;;;;;;;17.20;63.21;98990.84;5034665;28;20270;-56
2022/10/13 08:26:04;;;;;;;15.23;7.38;;;;;;;17.27;63.02;98991.97;5034588;28;20644;-57
2022/10/13 08:28:30;;;;;;;16.15;7.18;;;;;;;17.34;62.26;98986.06;5034483;28;20264;-56
2022/10/13 08:30:56;;;;;;;17.58;7.32;;;;;;;17.38;62.39;98989.28;5034741;28;20635;-57
2022/10/13 08:33:24;;;;;;;16.00;6.38;;;;;;;17.38;62.90;98986.66;5034400;28;20177;-56
2022/10/13 08:35:50;;;;;;;15.70;6.70;;;;;;;17.44;61.91;98984.31;5034118;28;20221;-56
2022/10/13 08:38:15;;;;;;;19.55;6.30;;;;;;;17.43;62.04;98977.44;5034625;28;20265;-57
2022/10/13 08:40:46;;;;;;;14.57;6.20;;;;;;;17.40;62.46;98977.72;5016616;28;20182;-56
2022/10/13 08:43:16;;;;;;;18.85;7.20;;;;;;;17.54;62.12;98974.72;5034253;28;20631;-57
2022/10/13 08:45:41;;;;;;;11.02;5.90;;;;;;;17.64;62.02;98982.56;5034238;28;20166;-57
2022/10/13 08:48:30;;;;;;;17.77;5.78;;;;;;;17.71;60.86;98979.28;5034188;28;20576;-56
2022/10/13 08:51:02;;;;;;;10.07;5.75;;;;;;;17.73;61.11;98976.53;5034051;28;20639;-57
2022/10/13 08:53:40;;;;;;;13.80;5.75;;;;;;;17.73;61.42;98976.53;5034058;28;20228;-57
2022/10/13 08:56:23;;;;;;;11.02;5.70;;;;;;;17.73;61.18;98979.16;5034430;28;20189;-56
2022/10/13 08:58:53;;;;;;;10.77;5.72;;;;;;;17.69;61.07;98983.00;5034536;28;20166;-57
2022/10/13 09:01:29;;;;;;;11.73;6.38;;;;;;;17.64;60.99;98979.97;5034191;28;20204;-57
2022/10/13 09:04:35;;;;;;;14.27;6.20;;;;;;;17.70;61.24;98974.19;5034013;28;20173;-56
2022/10/13 09:07:12;;;;;;;14.98;6.13;;;;;;;17.80;61.24;98975.03;5016136;28;20205;-56
2022/10/13 09:09:38;;;;;;;10.48;5.93;;;;;;;17.87;59.91;98976.97;5033840;28;20166;-57
2022/10/13 09:12:05;;;;;;;8.60;5.70;;;;;;;17.89;60.24;98979.47;5033732;28;20659;-57
2022/10/13 09:14:36;;;;;;;10.57;6.55;;;;;;;17.92;60.31;98979.19;5033898;28;20202;-57
2022/10/13 09:17:25;;;;;;;9.55;6.72;;;;;;;17.99;60.31;98972.41;5033542;28;20719;-57
2022/10/13 09:20:12;;;;;;;8.32;6.10;;;;;;;18.03;59.96;98976.44;5033917;28;20177;-57
2022/10/13 09:22:38;;;;;;;8.13;6.45;;;;;;;18.03;60.47;98971.19;5033607;28;20185;-57
2022/10/13 09:25:09;;;;;;;10.27;5.63;;;;;;;18.03;60.39;98966.78;5033521;28;20181;-57
2022/10/13 09:27:42;;;;;;;8.32;5.88;;;;;;;18.02;60.30;98969.53;5033388;28;20272;-57
2022/10/13 09:30:33;;;;;;;16.85;6.40;;;;;;;18.11;58.99;98966.06;5033449;28;20177;-57
2022/10/13 09:33:13;;;;;;;18.35;6.20;;;;;;;18.15;59.65;98964.84;5024348;28;20189;-57
2022/10/13 09:36:13;;;;;;;12.50;6.05;;;;;;;18.17;59.83;98962.91;5033147;28;20210;-57
2022/10/13 09:38:40;;;;;;;15.30;6.55;;;;;;;18.29;58.81;98964.41;5000206;28;20200;-57
2022/10/13 09:41:09;;;;;;;8.23;4.93;;;;;;;18.36;59.69;98960.31;5033398;28;20306;-57
2022/10/13 09:43:46;;;;;;;11.60;5.95;;;;;;;18.44;58.07;98956.03;5033412;28;20183;-57
2022/10/13 09:46:21;;;;;;;9.40;5.20;;;;;;;18.49;58.50;98947.75;5033106;28;20797;-57
2022/10/13 09:49:03;;;;;;;14.50;6.07;;;;;;;18.41;58.64;98945.81;5033336;28;20166;-57
2022/10/13 09:51:39;;;;;;;10.13;6.28;;;;;;;18.37;58.08;98946.25;5033452;28;20269;-57
2022/10/13 09:54:25;;;;;;;10.18;5.70;;;;;;;18.48;58.53;98941.66;5032893;28;20647;-57
2022/10/13 09:57:13;;;;;;;10.80;6.22;;;;;;;18.57;58.35;98939.97;5032931;28;20170;-57
2022/10/13 09:59:44;;;;;;;9.90;5.50;;;;;;;18.67;57.54;98938.16;5019864;28;20221;-57
2022/10/13 10:02:48;;;;;;;12.82;6.28;;;;;;;18.60;57.27;98934.47;5033114;28;20659;-57
2022/10/13 10:05:27;;;;;;;11.10;5.72;;;;;;;18.59;57.72;98924.97;4952644;28;20752;-56
2022/10/13 10:07:59;;;;;;;9.35;5.70;;;;;;;18.48;58.33;98920.69;5024925;28;20224;-57
2022/10/13 10:10:28;;;;;;;12.60;5.65;;;;;;;18.41;58.48;98918.81;5032676;28;20195;-57
2022/10/13 10:12:53;;;;;;;8.05;5.38;;;;;;;18.44;58.08;98908.88;5032861;28;20200;-57
2022/10/13 10:15:24;;;;;;;9.27;5.38;;;;;;;18.48;58.44;98904.16;5014878;28;20198;-57
2022/10/13 10:17:59;;;;;;;10.30;5.47;;;;;;;18.61;57.89;98900.25;5032827;28;20158;-56
2022/10/13 10:20:55;;;;;;;9.20;5.15;;;;;;;18.84;57.07;98898.09;5033062;28;20170;-56
2022/10/13 10:23:42;;;;;;;10.50;5.43;;;;;;;18.93;57.13;98897.22;5032728;28;20552;-57
2022/10/13 10:26:22;;;;;;;10.25;5.28;;;;;;;18.98;57.37;98874.00;5032698;28;20193;-57
2022/10/13 10:29:03;;;;;;;9.40;5.18;;;;;;;19.34;55.51;98888.84;5014523;28;20690;-57
2022/10/13 10:31:40;;;;;;;9.98;5.40;;;;;;;19.54;55.46;98887.78;5014613;28;20208;-56
2022/10/13 10:34:15;;;;;;;7.60;5.28;;;;;;;19.70;55.66;98880.84;5032219;28;20165;-57
2022/10/13 10:36:44;;;;;;;5.45;4.90;;;;;;;19.93;54.52;98876.78;5032597;28;20161;-57
2022/10/13 10:39:23;;;;;;;8.10;4.72;;;;;;;20.09;52.77;98876.97;5032108;28;20174;-57
2022/10/13 10:41:59;;;;;;;7.32;4.80;;;;;;;20.09;53.43;98857.72;5032496;28;20714;-57
2022/10/13 10:44:38;;;;;;;6.80;4.57;;;;;;;20.26;53.27;98862.13;5032421;28;20239;-57
2022/10/13 10:47:28;;;;;;;7.03;4.25;;;;;;;20.44;52.20;98860.25;5032409;28;20240;-56
2022/10/13 10:50:06;;;;;;;9.23;4.28;;;;;;;20.49;51.74;98858.00;5032318;28;20157;-57
2022/10/13 10:52:58;;;;;;;7.28;4.78;;;;;;;20.29;50.88;98852.13;5032140;28;20220;-57
2022/10/13 10:55:30;;;;;;;7.55;4.22;;;;;;;20.20;51.80;98846.97;5032240;28;20225;-57
2022/10/13 10:58:05;;;;;;;9.70;4.38;;;;;;;20.34;51.80;98846.41;5014289;28;20173;-57
2022/10/13 11:00:40;;;;;;;7.32;4.65;;;;;;;20.43;51.49;98848.09;5032294;28;20164;-57
2022/10/13 11:03:27;;;;;;;4.22;3.83;;;;;;;20.44;51.26;98841.84;5031943;28;20177;-57
2022/10/13 11:05:56;;;;;;;6.90;4.63;;;;;;;20.50;50.31;98841.22;5032192;28;20695;-57
2022/10/13 11:08:29;;;;;;;9.88;4.28;;;;;;;20.51;49.08;98838.44;5031890;28;20177;-57
2022/10/13 11:11:19;;;;;;;6.70;4.40;;;;;;;20.49;49.97;98831.69;5015579;28;20213;-57
2022/10/13 11:13:56;;;;;;;5.15;4.30;;;;;;;20.48;50.54;98824.78;5035973;28;20173;-57
2022/10/13 11:16:56;;;;;;;6.30;4.10;;;;;;;20.66;49.98;98822.91;5035893;28;20192;-57
2022/10/13 11:19:34;;;;;;;5.85;3.83;;;;;;;20.85;49.72;98820.00;5005410;28;20189;-57
2022/10/13 11:22:00;;;;;;;7.35;4.00;;;;;;;20.99;48.67;98814.19;5036085;28;20579;-57
2022/10/13 11:24:40;;;;;;;12.98;4.70;;;;;;;21.06;48.40;98808.13;5035727;28;20231;-57
2022/10/13 11:27:18;;;;;;;5.65;4.47;;;;;;;20.89;47.93;98797.72;5035632;28;20170;-57
2022/10/13 11:29:45;;;;;;;8.73;4.30;;;;;;;21.01;48.26;98794.63;5035912;28;20231;-57
2022/10/13 11:35:05;;;;;;;5.30;4.28;;;;;;;21.14;47.32;98786.25;5035788;28;20217;-57
2022/10/13 11:38:03;;;;;;;5.13;4.35;;;;;;;20.89;47.31;98781.91;5017806;28;20185;-57
2022/10/13 11:40:47;;;;;;;10.35;3.75;;;;;;;20.91;47.42;98772.06;5013985;28;20185;-57
2022/10/13 11:43:52;;;;;;;9.73;4.18;;;;;;;20.67;48.18;98767.53;5035710;28;20174;-57
2022/10/13 11:46:30;;;;;;;7.63;4.68;;;;;;;20.67;47.71;98770.16;5036185;28;20177;-57
2022/10/13 11:49:09;;;;;;;7.50;4.75;;;;;;;20.72;48.26;98774.94;5035573;28;20247;-57